sensor_id;sensor_type;location;lat;lon;timestamp;P1;durP1;ratioP1;P2;durP2;ratioP2
18867;SDS011;9563;49.240;9.088;2024-01-15T08:14:47;41.90;;;14.07;;
18867;SDS011;9563;49.240;9.088;2024-01-15T08:17:13;45.80;;;14.37;;
18867;SDS011;9563;49.240;9.088;2024-01-15T08:19:41;36.30;;;14.03;;
18867;SDS011;9563;49.240;9.088;2024-01-15T08:22:08;41.37;;;14.77;;
18867;SDS011;9563;49.240;9.088;2024-01-15T08:24:35;38.57;;;14.30;;
18867;SDS011;9563;49.240;9.088;2024-01-15T08:27:02;39.67;;;14.67;;
18867;SDS011;9563;49.240;9.088;2024-01-15T08:29:29;48.07;;;15.50;;
18867;SDS011;9563;49.240;9.088;2024-01-15T08:32:00;37.43;;;14.13;;
18867;SDS011;9563;49.240;9.088;2024-01-15T08:34:27;37.10;;;15.83;;
18867;SDS011;9563;49.240;9.088;2024-01-15T08:36:54;43.57;;;15.83;;
18867;SDS011;9563;49.240;9.088;2024-01-15T08:39:20;46.00;;;14.10;;
18867;SDS011;9563;49.240;9.088;2024-01-15T08:41:48;43.73;;;15.43;;
18867;SDS011;9563;49.240;9.088;2024-01-15T08:44:14;39.07;;;14.23;;
18867;SDS011;9563;49.240;9.088;2024-01-15T08:46:42;46.17;;;14.73;;
18867;SDS011;9563;49.240;9.088;2024-01-15T08:49:10;46.07;;;15.50;;
18867;SDS011;9563;49.240;9.088;2024-01-15T08:51:37;46.60;;;16.80;;
18867;SDS011;9563;49.240;9.088;2024-01-15T08:54:04;46.47;;;16.00;;
18867;SDS011;9563;49.240;9.088;2024-01-15T08:56:33;47.83;;;16.17;;
18867;SDS011;9563;49.240;9.088;2024-01-15T08:59:00;46.73;;;14.87;;
18867;SDS011;9563;49.240;9.088;2024-01-15T09:01:27;45.10;;;16.30;;
18867;SDS011;9563;49.240;9.088;2024-01-15T09:03:55;45.57;;;16.57;;
18867;SDS011;9563;49.240;9.088;2024-01-15T09:06:23;50.43;;;16.20;;
18867;SDS011;9563;49.240;9.088;2024-01-15T09:08:50;44.13;;;17.30;;
18867;SDS011;9563;49.240;9.088;2024-01-15T09:11:17;52.03;;;18.30;;
18867;SDS011;9563;49.240;9.088;2024-01-15T09:13:44;44.97;;;16.90;;
18867;SDS011;9563;49.240;9.088;2024-01-15T09:16:11;44.63;;;15.57;;
18867;SDS011;9563;49.240;9.088;2024-01-15T09:18:37;42.07;;;15.70;;
18867;SDS011;9563;49.240;9.088;2024-01-15T09:21:04;47.17;;;17.47;;
18867;SDS011;9563;49.240;9.088;2024-01-15T09:23:33;52.43;;;16.60;;
18867;SDS011;9563;49.240;9.088;2024-01-15T09:26:00;49.03;;;16.63;;
18867;SDS011;9563;49.240;9.088;2024-01-15T09:28:27;47.97;;;17.50;;
18867;SDS011;9563;49.240;9.088;2024-01-15T09:30:54;53.23;;;17.37;;
18867;SDS011;9563;49.240;9.088;2024-01-15T09:33:21;47.03;;;17.40;;
18867;SDS011;9563;49.240;9.088;2024-01-15T09:35:48;50.33;;;17.53;;
18867;SDS011;9563;49.240;9.088;2024-01-15T09:38:15;52.53;;;16.60;;
18867;SDS011;9563;49.240;9.088;2024-01-15T09:40:45;47.70;;;16.70;;
18867;SDS011;9563;49.240;9.088;2024-01-15T09:43:13;48.60;;;15.97;;
18867;SDS011;9563;49.240;9.088;2024-01-15T09:45:41;43.90;;;16.80;;
18867;SDS011;9563;49.240;9.088;2024-01-15T09:48:09;47.83;;;16.97;;
18867;SDS011;9563;49.240;9.088;2024-01-15T09:50:36;54.57;;;18.07;;
18867;SDS011;9563;49.240;9.088;2024-01-15T09:53:03;48.67;;;16.30;;
18867;SDS011;9563;49.240;9.088;2024-01-15T09:55:31;46.13;;;16.97;;
18867;SDS011;9563;49.240;9.088;2024-01-15T09:58:00;44.90;;;18.23;;
18867;SDS011;9563;49.240;9.088;2024-01-15T10:00:28;47.50;;;17.50;;
18867;SDS011;9563;49.240;9.088;2024-01-15T10:02:56;48.87;;;17.47;;
18867;SDS011;9563;49.240;9.088;2024-01-15T10:05:23;51.43;;;17.03;;
18867;SDS011;9563;49.240;9.088;2024-01-15T10:07:50;47.57;;;15.80;;
18867;SDS011;9563;49.240;9.088;2024-01-15T10:10:19;49.40;;;16.03;;
18867;SDS011;9563;49.240;9.088;2024-01-15T10:12:47;41.63;;;15.40;;
18867;SDS011;9563;49.240;9.088;2024-01-15T10:15:15;47.13;;;17.33;;
18867;SDS011;9563;49.240;9.088;2024-01-15T10:17:42;45.27;;;17.10;;
18867;SDS011;9563;49.240;9.088;2024-01-15T10:20:10;46.13;;;16.30;;
18867;SDS011;9563;49.240;9.088;2024-01-15T10:22:39;47.60;;;16.67;;
18867;SDS011;9563;49.240;9.088;2024-01-15T10:25:09;41.43;;;15.27;;
18867;SDS011;9563;49.240;9.088;2024-01-15T10:27:37;43.33;;;17.77;;
18867;SDS011;9563;49.240;9.088;2024-01-15T10:30:04;47.63;;;16.60;;
18867;SDS011;9563;49.240;9.088;2024-01-15T10:32:33;52.07;;;16.23;;
18867;SDS011;9563;49.240;9.088;2024-01-15T10:35:00;49.63;;;17.33;;
18867;SDS011;9563;49.240;9.088;2024-01-15T10:37:27;51.23;;;18.30;;
18867;SDS011;9563;49.240;9.088;2024-01-15T10:39:54;50.43;;;16.07;;
18867;SDS011;9563;49.240;9.088;2024-01-15T10:42:20;47.93;;;17.60;;
18867;SDS011;9563;49.240;9.088;2024-01-15T10:44:47;56.07;;;19.03;;
18867;SDS011;9563;49.240;9.088;2024-01-15T10:47:14;48.87;;;18.97;;
18867;SDS011;9563;49.240;9.088;2024-01-15T10:49:44;51.20;;;17.77;;
18867;SDS011;9563;49.240;9.088;2024-01-15T10:52:12;52.73;;;18.67;;
18867;SDS011;9563;49.240;9.088;2024-01-15T10:54:40;56.20;;;19.13;;
18867;SDS011;9563;49.240;9.088;2024-01-15T10:57:09;60.87;;;19.37;;
18867;SDS011;9563;49.240;9.088;2024-01-15T10:59:36;51.77;;;19.10;;
18867;SDS011;9563;49.240;9.088;2024-01-15T11:02:03;55.60;;;18.47;;
18867;SDS011;9563;49.240;9.088;2024-01-15T11:04:31;56.30;;;19.57;;
18867;SDS011;9563;49.240;9.088;2024-01-15T11:07:00;61.73;;;19.67;;
18867;SDS011;9563;49.240;9.088;2024-01-15T11:09:29;62.60;;;18.53;;
18867;SDS011;9563;49.240;9.088;2024-01-15T11:12:06;50.67;;;17.67;;
18867;SDS011;9563;49.240;9.088;2024-01-15T11:14:34;54.30;;;18.10;;
18867;SDS011;9563;49.240;9.088;2024-01-15T11:17:01;53.60;;;19.33;;
18867;SDS011;9563;49.240;9.088;2024-01-15T11:19:35;47.50;;;17.10;;
18867;SDS011;9563;49.240;9.088;2024-01-15T11:22:04;47.97;;;17.73;;
18867;SDS011;9563;49.240;9.088;2024-01-15T11:24:36;46.87;;;18.10;;
18867;SDS011;9563;49.240;9.088;2024-01-15T11:27:04;56.73;;;17.30;;
18867;SDS011;9563;49.240;9.088;2024-01-15T11:29:32;54.20;;;17.33;;
18867;SDS011;9563;49.240;9.088;2024-01-15T11:32:00;44.03;;;15.30;;
18867;SDS011;9563;49.240;9.088;2024-01-15T11:37:25;51.47;;;17.17;;
18867;SDS011;9563;49.240;9.088;2024-01-15T11:39:53;49.07;;;18.13;;
18867;SDS011;9563;49.240;9.088;2024-01-15T11:42:22;44.50;;;17.53;;
18867;SDS011;9563;49.240;9.088;2024-01-15T11:44:49;43.17;;;16.20;;
18867;SDS011;9563;49.240;9.088;2024-01-15T11:47:16;48.17;;;17.50;;
18867;SDS011;9563;49.240;9.088;2024-01-15T11:50:00;47.87;;;16.80;;
18867;SDS011;9563;49.240;9.088;2024-01-15T11:52:32;54.93;;;18.10;;
18867;SDS011;9563;49.240;9.088;2024-01-15T11:55:01;41.83;;;15.30;;
18867;SDS011;9563;49.240;9.088;2024-01-15T11:57:37;46.80;;;16.77;;
18867;SDS011;9563;49.240;9.088;2024-01-15T12:00:08;55.17;;;16.93;;
18867;SDS011;9563;49.240;9.088;2024-01-15T12:02:37;51.37;;;17.70;;
18867;SDS011;9563;49.240;9.088;2024-01-15T12:05:05;56.13;;;17.60;;
18867;SDS011;9563;49.240;9.088;2024-01-15T12:07:34;43.87;;;17.00;;
18867;SDS011;9563;49.240;9.088;2024-01-15T12:10:01;44.63;;;16.43;;
18867;SDS011;9563;49.240;9.088;2024-01-15T12:12:30;46.30;;;17.23;;
18867;SDS011;9563;49.240;9.088;2024-01-15T12:15:07;40.07;;;15.90;;
18867;SDS011;9563;49.240;9.088;2024-01-15T12:17:34;45.17;;;17.17;;
18867;SDS011;9563;49.240;9.088;2024-01-15T12:20:01;42.10;;;16.03;;
18867;SDS011;9563;49.240;9.088;2024-01-15T12:22:28;43.73;;;15.43;;
18867;SDS011;9563;49.240;9.088;2024-01-15T12:24:57;37.83;;;15.20;;
18867;SDS011;9563;49.240;9.088;2024-01-15T12:27:24;41.57;;;13.77;;
18867;SDS011;9563;49.240;9.088;2024-01-15T12:29:52;37.87;;;14.80;;
18867;SDS011;9563;49.240;9.088;2024-01-15T12:32:19;36.63;;;14.50;;
18867;SDS011;9563;49.240;9.088;2024-01-15T12:34:48;37.27;;;15.57;;
18867;SDS011;9563;49.240;9.088;2024-01-15T12:37:17;34.70;;;13.47;;
18867;SDS011;9563;49.240;9.088;2024-01-15T12:39:45;34.40;;;15.27;;
18867;SDS011;9563;49.240;9.088;2024-01-15T12:42:15;32.23;;;13.30;;
18867;SDS011;9563;49.240;9.088;2024-01-15T12:44:42;36.33;;;14.33;;
18867;SDS011;9563;49.240;9.088;2024-01-15T12:47:10;36.87;;;13.83;;
18867;SDS011;9563;49.240;9.088;2024-01-15T12:49:39;34.57;;;12.83;;
18867;SDS011;9563;49.240;9.088;2024-01-15T12:52:08;33.17;;;15.03;;
18867;SDS011;9563;49.240;9.088;2024-01-15T12:54:35;40.80;;;15.43;;
18867;SDS011;9563;49.240;9.088;2024-01-15T12:57:02;36.97;;;14.50;;
18867;SDS011;9563;49.240;9.088;2024-01-15T12:59:31;33.47;;;12.93;;
18867;SDS011;9563;49.240;9.088;2024-01-15T13:01:58;33.17;;;12.80;;
18867;SDS011;9563;49.240;9.088;2024-01-15T13:04:25;29.93;;;13.27;;
18867;SDS011;9563;49.240;9.088;2024-01-15T13:06:52;33.93;;;13.90;;
18867;SDS011;9563;49.240;9.088;2024-01-15T13:09:19;33.43;;;13.43;;
18867;SDS011;9563;49.240;9.088;2024-01-15T13:11:46;29.47;;;12.70;;
18867;SDS011;9563;49.240;9.088;2024-01-15T13:14:13;26.83;;;13.10;;
18867;SDS011;9563;49.240;9.088;2024-01-15T13:16:42;30.53;;;12.63;;
18867;SDS011;9563;49.240;9.088;2024-01-15T13:19:09;30.57;;;11.83;;
18867;SDS011;9563;49.240;9.088;2024-01-15T13:21:38;31.13;;;12.07;;
18867;SDS011;9563;49.240;9.088;2024-01-15T13:24:05;29.43;;;12.87;;
18867;SDS011;9563;49.240;9.088;2024-01-15T13:26:34;22.37;;;10.63;;
18867;SDS011;9563;49.240;9.088;2024-01-15T13:29:01;26.30;;;11.77;;
18867;SDS011;9563;49.240;9.088;2024-01-15T13:31:29;24.40;;;10.93;;
18867;SDS011;9563;49.240;9.088;2024-01-15T13:33:57;27.97;;;11.60;;
18867;SDS011;9563;49.240;9.088;2024-01-15T13:36:24;27.73;;;11.23;;
18867;SDS011;9563;49.240;9.088;2024-01-15T13:38:52;21.67;;;10.60;;
18867;SDS011;9563;49.240;9.088;2024-01-15T13:41:20;24.13;;;10.10;;
18867;SDS011;9563;49.240;9.088;2024-01-15T13:43:52;19.33;;;9.90;;
18867;SDS011;9563;49.240;9.088;2024-01-15T13:46:19;25.63;;;11.10;;
18867;SDS011;9563;49.240;9.088;2024-01-15T13:48:47;23.07;;;10.03;;
18867;SDS011;9563;49.240;9.088;2024-01-15T13:51:15;21.67;;;9.50;;
18867;SDS011;9563;49.240;9.088;2024-01-15T13:53:42;22.30;;;9.80;;
18867;SDS011;9563;49.240;9.088;2024-01-15T13:56:09;23.50;;;10.37;;
18867;SDS011;9563;49.240;9.088;2024-01-15T13:58:36;18.63;;;9.70;;
18867;SDS011;9563;49.240;9.088;2024-01-15T14:01:03;20.90;;;8.73;;
18867;SDS011;9563;49.240;9.088;2024-01-15T14:03:31;19.43;;;9.17;;
18867;SDS011;9563;49.240;9.088;2024-01-15T14:05:58;22.10;;;10.33;;
18867;SDS011;9563;49.240;9.088;2024-01-15T14:08:26;19.63;;;9.40;;
18867;SDS011;9563;49.240;9.088;2024-01-15T14:10:53;16.83;;;9.57;;
18867;SDS011;9563;49.240;9.088;2024-01-15T14:13:22;19.37;;;9.13;;
18867;SDS011;9563;49.240;9.088;2024-01-15T14:15:48;20.87;;;9.10;;
18867;SDS011;9563;49.240;9.088;2024-01-15T14:18:15;18.17;;;9.53;;
18867;SDS011;9563;49.240;9.088;2024-01-15T14:20:42;17.87;;;9.03;;
18867;SDS011;9563;49.240;9.088;2024-01-15T14:23:09;22.60;;;9.73;;
18867;SDS011;9563;49.240;9.088;2024-01-15T14:25:38;18.20;;;8.47;;
18867;SDS011;9563;49.240;9.088;2024-01-15T14:28:05;15.73;;;8.47;;
18867;SDS011;9563;49.240;9.088;2024-01-15T14:30:32;19.67;;;9.13;;
18867;SDS011;9563;49.240;9.088;2024-01-15T14:32:59;21.50;;;9.43;;
18867;SDS011;9563;49.240;9.088;2024-01-15T14:35:26;17.20;;;9.03;;
18867;SDS011;9563;49.240;9.088;2024-01-15T14:37:52;22.37;;;9.80;;
18867;SDS011;9563;49.240;9.088;2024-01-15T14:40:19;18.27;;;8.57;;
18867;SDS011;9563;49.240;9.088;2024-01-15T14:42:48;17.37;;;8.43;;
18867;SDS011;9563;49.240;9.088;2024-01-15T14:45:15;21.37;;;8.80;;
18867;SDS011;9563;49.240;9.088;2024-01-15T14:47:42;21.80;;;9.47;;
18867;SDS011;9563;49.240;9.088;2024-01-15T14:50:09;19.30;;;8.87;;
18867;SDS011;9563;49.240;9.088;2024-01-15T14:52:37;17.77;;;9.03;;
18867;SDS011;9563;49.240;9.088;2024-01-15T14:55:05;19.30;;;9.33;;
18867;SDS011;9563;49.240;9.088;2024-01-15T14:57:33;21.60;;;8.90;;
18867;SDS011;9563;49.240;9.088;2024-01-15T15:00:02;18.03;;;8.40;;
18867;SDS011;9563;49.240;9.088;2024-01-15T15:02:32;23.63;;;8.87;;
18867;SDS011;9563;49.240;9.088;2024-01-15T15:04:59;17.73;;;8.33;;
18867;SDS011;9563;49.240;9.088;2024-01-15T15:07:26;16.97;;;8.83;;
18867;SDS011;9563;49.240;9.088;2024-01-15T15:09:53;18.70;;;9.03;;
18867;SDS011;9563;49.240;9.088;2024-01-15T15:12:20;15.93;;;7.73;;
18867;SDS011;9563;49.240;9.088;2024-01-15T15:14:47;15.63;;;7.90;;
18867;SDS011;9563;49.240;9.088;2024-01-15T15:17:15;18.93;;;7.70;;
18867;SDS011;9563;49.240;9.088;2024-01-15T15:19:42;14.60;;;7.77;;
18867;SDS011;9563;49.240;9.088;2024-01-15T15:22:09;16.30;;;8.27;;
18867;SDS011;9563;49.240;9.088;2024-01-15T15:24:36;18.67;;;8.57;;
18867;SDS011;9563;49.240;9.088;2024-01-15T15:27:03;14.13;;;7.63;;
18867;SDS011;9563;49.240;9.088;2024-01-15T15:29:31;16.03;;;8.20;;
18867;SDS011;9563;49.240;9.088;2024-01-15T15:31:58;16.13;;;7.67;;
18867;SDS011;9563;49.240;9.088;2024-01-15T15:34:27;22.90;;;8.30;;
18867;SDS011;9563;49.240;9.088;2024-01-15T15:36:54;16.87;;;8.47;;
18867;SDS011;9563;49.240;9.088;2024-01-15T15:39:21;19.07;;;8.27;;
18867;SDS011;9563;49.240;9.088;2024-01-15T15:41:48;18.73;;;8.13;;
18867;SDS011;9563;49.240;9.088;2024-01-15T15:44:15;14.73;;;7.57;;
18867;SDS011;9563;49.240;9.088;2024-01-15T15:46:43;14.87;;;8.17;;
18867;SDS011;9563;49.240;9.088;2024-01-15T15:49:10;22.07;;;8.77;;
18867;SDS011;9563;49.240;9.088;2024-01-15T15:51:38;18.47;;;8.30;;
18867;SDS011;9563;49.240;9.088;2024-01-15T15:54:06;15.53;;;7.73;;
18867;SDS011;9563;49.240;9.088;2024-01-15T15:56:34;14.77;;;7.60;;
18867;SDS011;9563;49.240;9.088;2024-01-15T15:59:03;18.40;;;8.30;;
18867;SDS011;9563;49.240;9.088;2024-01-15T16:01:31;18.37;;;7.57;;
18867;SDS011;9563;49.240;9.088;2024-01-15T16:03:58;20.87;;;9.27;;
18867;SDS011;9563;49.240;9.088;2024-01-15T16:06:25;17.37;;;8.27;;
18867;SDS011;9563;49.240;9.088;2024-01-15T16:08:54;19.67;;;8.63;;
18867;SDS011;9563;49.240;9.088;2024-01-15T16:11:21;33.93;;;13.30;;
18867;SDS011;9563;49.240;9.088;2024-01-15T16:13:48;19.30;;;8.50;;
18867;SDS011;9563;49.240;9.088;2024-01-15T16:16:15;19.93;;;8.43;;
18867;SDS011;9563;49.240;9.088;2024-01-15T16:18:42;18.63;;;7.97;;
18867;SDS011;9563;49.240;9.088;2024-01-15T16:21:10;15.87;;;8.00;;
18867;SDS011;9563;49.240;9.088;2024-01-15T16:23:37;15.20;;;7.60;;
18867;SDS011;9563;49.240;9.088;2024-01-15T16:26:06;32.53;;;8.70;;
18867;SDS011;9563;49.240;9.088;2024-01-15T16:28:33;15.00;;;7.10;;
18867;SDS011;9563;49.240;9.088;2024-01-15T16:31:00;20.50;;;8.27;;
18867;SDS011;9563;49.240;9.088;2024-01-15T16:33:27;16.83;;;8.00;;
18867;SDS011;9563;49.240;9.088;2024-01-15T16:35:54;15.93;;;7.70;;
18867;SDS011;9563;49.240;9.088;2024-01-15T16:38:22;17.27;;;7.03;;
18867;SDS011;9563;49.240;9.088;2024-01-15T16:40:50;12.80;;;6.63;;
18867;SDS011;9563;49.240;9.088;2024-01-15T16:43:18;17.63;;;7.47;;
18867;SDS011;9563;49.240;9.088;2024-01-15T16:45:45;16.30;;;7.37;;
18867;SDS011;9563;49.240;9.088;2024-01-15T16:48:12;14.80;;;6.60;;
18867;SDS011;9563;49.240;9.088;2024-01-15T16:50:39;12.77;;;6.43;;
18867;SDS011;9563;49.240;9.088;2024-01-15T16:53:06;14.93;;;6.80;;
18867;SDS011;9563;49.240;9.088;2024-01-15T16:55:33;16.17;;;6.43;;
18867;SDS011;9563;49.240;9.088;2024-01-15T16:58:00;17.20;;;6.97;;
18867;SDS011;9563;49.240;9.088;2024-01-15T17:00:28;14.27;;;6.93;;
18867;SDS011;9563;49.240;9.088;2024-01-15T17:02:55;18.67;;;6.47;;
18867;SDS011;9563;49.240;9.088;2024-01-15T17:05:22;16.40;;;7.30;;
18867;SDS011;9563;49.240;9.088;2024-01-15T17:07:49;19.57;;;7.30;;
18867;SDS011;9563;49.240;9.088;2024-01-15T17:10:16;17.90;;;7.73;;
18867;SDS011;9563;49.240;9.088;2024-01-15T17:12:43;17.77;;;7.37;;
18867;SDS011;9563;49.240;9.088;2024-01-15T17:15:12;19.30;;;8.57;;
18867;SDS011;9563;49.240;9.088;2024-01-15T17:17:40;14.47;;;7.17;;
18867;SDS011;9563;49.240;9.088;2024-01-15T17:20:08;20.97;;;9.23;;
18867;SDS011;9563;49.240;9.088;2024-01-15T17:22:36;16.10;;;7.60;;
18867;SDS011;9563;49.240;9.088;2024-01-15T17:25:03;19.07;;;8.33;;
18867;SDS011;9563;49.240;9.088;2024-01-15T17:27:31;16.10;;;7.60;;
18867;SDS011;9563;49.240;9.088;2024-01-15T17:29:58;13.00;;;7.33;;
18867;SDS011;9563;49.240;9.088;2024-01-15T17:32:25;18.33;;;7.93;;
18867;SDS011;9563;49.240;9.088;2024-01-15T17:34:53;19.40;;;8.73;;
18867;SDS011;9563;49.240;9.088;2024-01-15T17:37:20;18.13;;;7.43;;
18867;SDS011;9563;49.240;9.088;2024-01-15T17:39:47;17.20;;;8.30;;
18867;SDS011;9563;49.240;9.088;2024-01-15T17:42:15;18.37;;;8.20;;
18867;SDS011;9563;49.240;9.088;2024-01-15T17:44:42;19.10;;;8.27;;
18867;SDS011;9563;49.240;9.088;2024-01-15T17:47:09;16.10;;;7.43;;
18867;SDS011;9563;49.240;9.088;2024-01-15T17:49:36;16.67;;;8.00;;
18867;SDS011;9563;49.240;9.088;2024-01-15T17:52:07;21.07;;;8.67;;
18867;SDS011;9563;49.240;9.088;2024-01-15T17:54:34;15.07;;;7.20;;
18867;SDS011;9563;49.240;9.088;2024-01-15T17:57:01;15.40;;;8.20;;
18867;SDS011;9563;49.240;9.088;2024-01-15T17:59:29;18.20;;;8.00;;
18867;SDS011;9563;49.240;9.088;2024-01-15T18:01:56;18.53;;;7.70;;
18867;SDS011;9563;49.240;9.088;2024-01-15T18:04:22;17.20;;;8.33;;
18867;SDS011;9563;49.240;9.088;2024-01-15T18:06:49;17.57;;;7.97;;
18867;SDS011;9563;49.240;9.088;2024-01-15T18:09:18;16.73;;;8.20;;
18867;SDS011;9563;49.240;9.088;2024-01-15T18:11:45;14.70;;;7.23;;
18867;SDS011;9563;49.240;9.088;2024-01-15T18:14:12;17.23;;;7.80;;
18867;SDS011;9563;49.240;9.088;2024-01-15T18:16:40;17.97;;;7.40;;
18867;SDS011;9563;49.240;9.088;2024-01-15T18:19:10;16.00;;;6.80;;
18867;SDS011;9563;49.240;9.088;2024-01-15T18:21:37;16.20;;;7.10;;
18867;SDS011;9563;49.240;9.088;2024-01-15T18:24:04;17.63;;;7.23;;
18867;SDS011;9563;49.240;9.088;2024-01-15T18:26:33;16.60;;;7.57;;
18867;SDS011;9563;49.240;9.088;2024-01-15T18:29:01;13.50;;;5.83;;
18867;SDS011;9563;49.240;9.088;2024-01-15T18:31:28;16.23;;;6.80;;
18867;SDS011;9563;49.240;9.088;2024-01-15T18:33:55;14.17;;;7.13;;
18867;SDS011;9563;49.240;9.088;2024-01-15T18:36:22;18.57;;;6.90;;
18867;SDS011;9563;49.240;9.088;2024-01-15T18:38:50;11.93;;;6.57;;
18867;SDS011;9563;49.240;9.088;2024-01-15T18:41:20;17.53;;;7.63;;
18867;SDS011;9563;49.240;9.088;2024-01-15T18:43:48;13.17;;;7.03;;
18867;SDS011;9563;49.240;9.088;2024-01-15T18:46:15;14.20;;;6.00;;
18867;SDS011;9563;49.240;9.088;2024-01-15T18:48:44;13.93;;;6.50;;
18867;SDS011;9563;49.240;9.088;2024-01-15T18:51:18;14.40;;;6.90;;
18867;SDS011;9563;49.240;9.088;2024-01-15T18:53:45;13.73;;;5.47;;
18867;SDS011;9563;49.240;9.088;2024-01-15T18:56:13;14.30;;;6.40;;
18867;SDS011;9563;49.240;9.088;2024-01-15T18:58:40;14.20;;;5.90;;
18867;SDS011;9563;49.240;9.088;2024-01-15T19:01:09;14.70;;;5.90;;
18867;SDS011;9563;49.240;9.088;2024-01-15T19:03:38;11.03;;;5.60;;
18867;SDS011;9563;49.240;9.088;2024-01-15T19:06:05;12.43;;;5.63;;
18867;SDS011;9563;49.240;9.088;2024-01-15T19:08:33;12.27;;;5.50;;
18867;SDS011;9563;49.240;9.088;2024-01-15T19:11:00;15.23;;;6.07;;
18867;SDS011;9563;49.240;9.088;2024-01-15T19:13:28;17.93;;;5.53;;
18867;SDS011;9563;49.240;9.088;2024-01-15T19:15:55;12.90;;;5.80;;
18867;SDS011;9563;49.240;9.088;2024-01-15T19:18:25;11.20;;;4.97;;
18867;SDS011;9563;49.240;9.088;2024-01-15T19:20:52;10.83;;;5.07;;
18867;SDS011;9563;49.240;9.088;2024-01-15T19:23:19;9.67;;;5.00;;
18867;SDS011;9563;49.240;9.088;2024-01-15T19:25:46;12.37;;;5.07;;
18867;SDS011;9563;49.240;9.088;2024-01-15T19:28:13;12.97;;;5.10;;
18867;SDS011;9563;49.240;9.088;2024-01-15T19:30:40;13.20;;;4.73;;
18867;SDS011;9563;49.240;9.088;2024-01-15T19:33:08;10.43;;;5.20;;
18867;SDS011;9563;49.240;9.088;2024-01-15T19:35:36;10.07;;;4.83;;
18867;SDS011;9563;49.240;9.088;2024-01-15T19:38:04;11.80;;;4.90;;
18867;SDS011;9563;49.240;9.088;2024-01-15T19:40:31;12.07;;;4.47;;
18867;SDS011;9563;49.240;9.088;2024-01-15T19:42:58;9.30;;;4.47;;
18867;SDS011;9563;49.240;9.088;2024-01-15T19:45:26;8.83;;;4.50;;
18867;SDS011;9563;49.240;9.088;2024-01-15T19:47:53;9.27;;;4.50;;
18867;SDS011;9563;49.240;9.088;2024-01-15T19:50:20;10.73;;;4.30;;
18867;SDS011;9563;49.240;9.088;2024-01-15T19:52:48;7.03;;;4.40;;
18867;SDS011;9563;49.240;9.088;2024-01-15T19:55:15;11.73;;;4.57;;
18867;SDS011;9563;49.240;9.088;2024-01-15T19:57:42;10.40;;;4.47;;
18867;SDS011;9563;49.240;9.088;2024-01-15T20:00:09;8.40;;;4.53;;
18867;SDS011;9563;49.240;9.088;2024-01-15T20:02:37;6.07;;;3.83;;
18867;SDS011;9563;49.240;9.088;2024-01-15T20:05:05;6.30;;;3.77;;
18867;SDS011;9563;49.240;9.088;2024-01-15T20:07:34;12.37;;;4.77;;
18867;SDS011;9563;49.240;9.088;2024-01-15T20:10:03;8.27;;;4.37;;
18867;SDS011;9563;49.240;9.088;2024-01-15T20:12:30;12.73;;;4.70;;
18867;SDS011;9563;49.240;9.088;2024-01-15T20:14:57;11.47;;;4.53;;
18867;SDS011;9563;49.240;9.088;2024-01-15T20:17:24;7.80;;;3.87;;
18867;SDS011;9563;49.240;9.088;2024-01-15T20:19:51;10.70;;;4.37;;
18867;SDS011;9563;49.240;9.088;2024-01-15T20:22:19;9.63;;;4.83;;
18867;SDS011;9563;49.240;9.088;2024-01-15T20:24:47;7.77;;;3.90;;
18867;SDS011;9563;49.240;9.088;2024-01-15T20:27:15;8.90;;;3.87;;
18867;SDS011;9563;49.240;9.088;2024-01-15T20:29:42;10.10;;;4.93;;
18867;SDS011;9563;49.240;9.088;2024-01-15T20:32:09;10.37;;;4.53;;
18867;SDS011;9563;49.240;9.088;2024-01-15T20:34:37;11.73;;;4.80;;
18867;SDS011;9563;49.240;9.088;2024-01-15T20:37:04;9.23;;;4.57;;
18867;SDS011;9563;49.240;9.088;2024-01-15T20:39:30;7.20;;;3.90;;
18867;SDS011;9563;49.240;9.088;2024-01-15T20:41:57;9.77;;;4.33;;
18867;SDS011;9563;49.240;9.088;2024-01-15T20:44:26;10.80;;;4.57;;
18867;SDS011;9563;49.240;9.088;2024-01-15T20:46:53;11.10;;;4.60;;
18867;SDS011;9563;49.240;9.088;2024-01-15T20:49:20;13.80;;;4.87;;
18867;SDS011;9563;49.240;9.088;2024-01-15T20:51:46;11.83;;;4.80;;
18867;SDS011;9563;49.240;9.088;2024-01-15T20:54:14;9.13;;;4.47;;
18867;SDS011;9563;49.240;9.088;2024-01-15T20:56:40;9.73;;;4.43;;
18867;SDS011;9563;49.240;9.088;2024-01-15T20:59:07;9.80;;;4.50;;
18867;SDS011;9563;49.240;9.088;2024-01-15T21:01:36;10.03;;;4.83;;
18867;SDS011;9563;49.240;9.088;2024-01-15T21:04:03;9.57;;;4.47;;
18867;SDS011;9563;49.240;9.088;2024-01-15T21:06:31;8.70;;;4.50;;
18867;SDS011;9563;49.240;9.088;2024-01-15T21:08:59;12.83;;;4.40;;
18867;SDS011;9563;49.240;9.088;2024-01-15T21:11:26;9.63;;;4.10;;
18867;SDS011;9563;49.240;9.088;2024-01-15T21:13:53;10.10;;;4.47;;
18867;SDS011;9563;49.240;9.088;2024-01-15T21:16:20;10.20;;;4.37;;
18867;SDS011;9563;49.240;9.088;2024-01-15T21:18:49;9.23;;;4.33;;
18867;SDS011;9563;49.240;9.088;2024-01-15T21:21:16;12.90;;;4.80;;
18867;SDS011;9563;49.240;9.088;2024-01-15T21:23:43;12.23;;;4.60;;
18867;SDS011;9563;49.240;9.088;2024-01-15T21:26:10;13.50;;;4.83;;
18867;SDS011;9563;49.240;9.088;2024-01-15T21:28:38;9.23;;;4.37;;
18867;SDS011;9563;49.240;9.088;2024-01-15T21:31:05;10.43;;;4.40;;
18867;SDS011;9563;49.240;9.088;2024-01-15T21:33:32;12.53;;;5.00;;
18867;SDS011;9563;49.240;9.088;2024-01-15T21:36:03;10.33;;;4.70;;
18867;SDS011;9563;49.240;9.088;2024-01-15T21:38:31;7.83;;;4.33;;
18867;SDS011;9563;49.240;9.088;2024-01-15T21:40:58;9.73;;;4.47;;
18867;SDS011;9563;49.240;9.088;2024-01-15T21:43:25;8.80;;;4.40;;
18867;SDS011;9563;49.240;9.088;2024-01-15T21:45:52;9.13;;;4.73;;
